• Join FlightAware (Why Join?)
  • Login
  • US Flag 
04:36PM EST


 

Airport Tracker/Info


-or-


 

Live Flight TrackerFlight Track Log ✈ UAL33 ✈ 25-Jul-2013 ✈ KORD - KIAH

Flight Track Log - Related Links

Times and Time Zones

All times are in EDT time to prevent confusion due to time zone crossing. See the UAL33 flight status page for this flight to view local times or setup timezone preferences in your user account.

Time Position Orientation Groundspeed Altitude Reporting Facility
EDT Latitude Longitude Course Direction KTS MPH feet Rate Location/Type
09:52PM 41.9790 -87.9120 14° North  Level FlightAware
09:56PM 41.9800 -87.9130 323° Northwest 26 30 120 Level FlightAware
09:57PM 41.9820 -87.9150 323° Northwest 27 31 240 Level FlightAware
09:57PM 41.9780 -87.9140 169° South 29 33 240 Level FlightAware
09:57PM 41.9750 -87.9140 180° South 27 31 240 Level FlightAware
10:00PM 41.7564 -87.9468 200° South  Level FlightAware Approximate
10:01PM 41.6535 -87.9716 187° South  Level FlightAware Approximate
10:02PM 41.5494 -87.9901 189° South  Level FlightAware Approximate
10:03PM 41.4454 -88.0109 189° South  Level FlightAware Approximate
10:04PM 41.3432 -88.0394 197° South  Level FlightAware Approximate
10:05PM 41.9960 -87.9480 304° West 154 177 2,100  Level FlightAware
10:05PM 41.9830 -87.9680 229° Southwest 182 209 3,200 2,520 Climbing FlightAware
10:05PM 41.9780 -87.9680 180° South 183 211 3,600 2,100 Climbing FlightAware
10:06PM 41.9420 -87.9620 173° South 242 278 4,800 1,200 Climbing FlightAware
10:06PM 41.9090 -87.9590 176° South 269 310 4,900 60 Climbing FlightAware
10:07PM 41.8740 -87.9550 175° South 267 307 4,900  Level FlightAware
10:07PM 41.8390 -87.9520 176° South 268 308 4,900 960 Level FlightAware
10:08PM 41.8070 -87.9490 176° South 271 312 5,800 3,000 Climbing FlightAware
10:08PM 41.7670 -87.9450 176° South 289 333 7,700 4,200 Climbing FlightAware
10:09PM 41.7290 -87.9420 177° South 296 341 9,900 4,500 Climbing FlightAware
10:09PM 41.6740 -87.9470 184° South 304 350 12,700 3,420 Climbing FlightAware
10:10PM 41.6230 -87.9630 193° South 335 386 14,400 2,940 Climbing FlightAware
10:11PM 41.5500 -87.9850 193° South 351 404 16,900 2,520 Climbing FlightAware
10:11PM 41.4680 -87.9870 181° South 374 430 18,300 2,400 Climbing FlightAware
10:12PM 41.3970 -87.9840 178° South 387 445 20,400 3,180 Climbing FlightAware
10:13PM 41.3180 -87.9790 177° South 394 453 22,800 3,060 Climbing FlightAware
10:13PM 41.2600 -87.9750 177° South 404 465 24,300 2,640 Climbing FlightAware
10:14PM 41.2160 -87.9880 193° South 398 458 25,300 2,520 Climbing FlightAware
10:14PM 41.1460 -88.0200 199° South 411 473 27,000 2,460 Climbing FlightAware
10:15PM 41.0780 -88.0530 200° South 418 481 28,500 2,340 Climbing FlightAware
10:16PM 40.9970 -88.1090 208° Southwest 427 491 30,300 2,220 Climbing FlightAware
10:17PM 40.9280 -88.1580 208° Southwest 434 499 31,700 1,980 Climbing FlightAware
10:17PM 40.8480 -88.2150 208° Southwest 446 513 33,100 1,680 Climbing FlightAware
10:18PM 40.7740 -88.2670 208° Southwest 458 527 34,100 1,560 Climbing FlightAware
10:19PM 40.6920 -88.3250 208° Southwest 465 535 35,300 1,620 Climbing FlightAware
10:19PM 40.6140 -88.3790 208° Southwest 468 539 36,400 1,800 Climbing FlightAware
10:20PM 40.5330 -88.4370 209° Southwest 460 529 37,900 1,740 Climbing FlightAware
10:21PM 40.4550 -88.4910 208° Southwest 460 529 38,900 1,380 Climbing FlightAware
10:21PM 40.3720 -88.5490 208° Southwest 457 526 39,900 780 Climbing FlightAware
10:22PM 40.3010 -88.5980 208° Southwest 456 525 40,000 60 Climbing FlightAware
10:23PM 40.2150 -88.6580 208° Southwest 455 524 40,000  Level FlightAware
10:24PM 40.1410 -88.7090 208° Southwest 457 526 40,000  Level FlightAware
10:24PM 40.0640 -88.7620 208° Southwest 458 527 40,000  Level FlightAware
10:25PM 39.9880 -88.8150 208° Southwest 458 527 40,000  Level FlightAware
10:26PM 39.9220 -88.8600 208° Southwest 458 527 40,000  Level FlightAware
10:26PM 39.8380 -88.9180 208° Southwest 460 529 40,000  Level FlightAware
10:27PM 39.7650 -88.9680 208° Southwest 459 528 40,000  Level FlightAware
10:28PM 39.6880 -89.0200 207° Southwest 461 531 40,000  Level FlightAware
10:28PM 39.6030 -89.0780 208° Southwest 460 529 40,000  Level FlightAware
10:29PM 39.5250 -89.1310 208° Southwest 460 529 40,000  Level FlightAware
10:30PM 39.4450 -89.1850 208° Southwest 462 532 40,000  Level FlightAware
10:30PM 39.3720 -89.2340 207° Southwest 464 534 40,000  Level FlightAware
10:31PM 39.3000 -89.2820 207° Southwest 465 535 40,000  Level FlightAware
10:32PM 39.2170 -89.3380 208° Southwest 466 536 40,000  Level FlightAware
10:32PM 39.1510 -89.3830 208° Southwest 466 536 40,000  Level FlightAware
10:33PM 39.0700 -89.4360 207° Southwest 466 536 40,000  Level FlightAware
10:34PM 39.0020 -89.4820 208° Southwest 466 536 40,000  Level FlightAware
10:34PM 38.9030 -89.5480 207° Southwest 467 537 40,000  Level FlightAware
10:35PM 38.8250 -89.6000 207° Southwest 468 539 40,000  Level FlightAware
10:36PM 38.7580 -89.6440 207° Southwest 468 539 40,000  Level FlightAware
10:36PM 38.6710 -89.7020 208° Southwest 469 540 40,000  Level FlightAware
10:37PM 38.5960 -89.7500 207° Southwest 469 540 40,000  Level FlightAware
10:38PM 38.5170 -89.8020 207° Southwest 470 541 40,000  Level FlightAware
10:38PM 38.4370 -89.8550 207° Southwest 470 541 40,000  Level FlightAware
10:39PM 38.3430 -89.9160 207° Southwest 469 540 40,000  Level FlightAware
10:40PM 38.2470 -89.9790 207° Southwest 466 536 40,000  Level FlightAware
10:41PM 38.1770 -90.0240 207° Southwest 466 536 40,000  Level FlightAware
10:42PM 38.0860 -90.0830 207° Southwest 467 537 40,000  Level FlightAware
10:42PM 38.0160 -90.1290 207° Southwest 467 537 40,000  Level FlightAware
10:43PM 37.9380 -90.1780 206° Southwest 466 536 40,000  Level FlightAware
10:43PM 37.8630 -90.2270 207° Southwest 466 536 40,000  Level FlightAware
10:44PM 37.8020 -90.2660 207° Southwest 466 536 40,000  Level FlightAware
10:45PM 37.7440 -90.3040 207° Southwest 466 536 40,000  Level FlightAware
10:46PM 37.6640 -90.3560 207° Southwest 466 536 40,000  Level FlightAware
10:46PM 37.5840 -90.4070 207° Southwest 466 536 40,000  Level FlightAware
10:47PM 37.5250 -90.4450 207° Southwest 466 536 40,000  Level FlightAware
10:48PM 37.4460 -90.4950 207° Southwest 466 536 40,000  Level FlightAware
10:48PM 37.2940 -90.5900 206° Southwest 464 534 40,000  Level FlightAware
10:49PM 37.2090 -90.6430 206° Southwest 462 532 40,000  Level FlightAware
10:50PM 37.1330 -90.6910 207° Southwest 462 532 40,000  Level FlightAware
10:51PM 37.0470 -90.7450 207° Southwest 461 531 40,000  Level FlightAware
10:51PM 36.9840 -90.7840 206° Southwest 463 533 40,000  Level FlightAware
10:52PM 36.9050 -90.8330 206° Southwest 464 534 40,000  Level FlightAware
10:53PM 36.8160 -90.8890 207° Southwest 464 534 40,000  Level FlightAware
10:53PM 36.7380 -90.9380 207° Southwest 464 534 40,000  Level FlightAware
10:54PM 36.6640 -90.9830 206° Southwest 464 534 40,000  Level FlightAware
10:54PM 36.5950 -91.0270 207° Southwest 465 535 40,000  Level FlightAware
10:55PM 36.4970 -91.0870 206° Southwest 465 535 40,000  Level FlightAware
10:56PM 36.4310 -91.1270 206° Southwest 462 532 40,000  Level FlightAware
10:57PM 36.3470 -91.1790 207° Southwest 464 534 40,000  Level FlightAware
10:57PM 36.2660 -91.2190 202° Southwest 471 542 40,000  Level FlightAware
10:58PM 36.1830 -91.2490 196° South 471 542 40,000  Level FlightAware
10:59PM 36.1050 -91.2770 196° South 473 544 40,000  Level FlightAware
10:59PM 35.9970 -91.3150 196° South 472 543 40,000  Level FlightAware
11:00PM 35.9130 -91.3450 196° South 472 543 40,000  Level FlightAware
11:01PM 35.8250 -91.3760 196° South 471 542 40,000  Level FlightAware
11:01PM 35.7330 -91.4080 196° South 469 540 40,000  Level FlightAware
11:03PM 35.5930 -91.4580 196° South 464 534 40,000  Level FlightAware
11:03PM 35.5190 -91.4840 196° South 464 534 40,000  Level FlightAware
11:04PM 35.4320 -91.5150 196° South 464 534 40,000  Level FlightAware
11:05PM 35.3260 -91.5520 196° South 464 534 40,000  Level FlightAware
11:05PM 35.2500 -91.5770 195° South 464 534 40,000  Level FlightAware
11:06PM 35.1660 -91.6050 195° South 464 534 40,000  Level FlightAware
11:07PM 35.1020 -91.6260 195° South 464 534 40,000  Level FlightAware
11:07PM 35.0370 -91.6470 195° South 464 534 40,000  Level FlightAware
11:08PM 34.9520 -91.6750 195° South 464 534 40,000  Level FlightAware
11:09PM 34.8170 -91.7290 198° South 463 533 40,000  Level FlightAware
11:10PM 34.7270 -91.7590 195° South 462 532 40,000  Level FlightAware
11:10PM 34.6280 -91.7930 196° South 463 533 40,000  Level FlightAware
11:11PM 34.5760 -91.8110 196° South 463 533 40,000  Level FlightAware
11:12PM 34.4880 -91.8390 195° South 463 533 40,000  Level FlightAware
11:12PM 34.4240 -91.8600 195° South 463 533 40,000  Level FlightAware
11:13PM 34.3610 -91.8800 195° South 463 533 40,000  Level FlightAware
11:14PM 34.2750 -91.9080 195° South 463 533 40,000  Level FlightAware
11:14PM 34.2310 -91.9230 196° South 463 533 40,000  Level FlightAware
11:15PM 34.1460 -91.9500 195° South 463 533 40,000  Level FlightAware
11:16PM 34.0830 -91.9700 195° South 463 533 40,000  Level FlightAware
11:16PM 33.9990 -91.9980 195° South 463 533 40,000  Level FlightAware
11:17PM 33.9340 -92.0190 195° South 463 533 40,000  Level FlightAware
11:18PM 33.8490 -92.0460 195° South 463 533 40,000  Level FlightAware
11:18PM 33.7840 -92.0670 195° South 463 533 40,000  Level FlightAware
11:19PM 33.7210 -92.0870 195° South 463 533 40,000  Level FlightAware
11:20PM 33.6380 -92.1140 195° South 463 533 40,000  Level FlightAware
11:20PM 33.5750 -92.1340 195° South 463 533 40,000  Level FlightAware
11:22PM 33.2392 -92.2603 195° South 466 536 40,000  Level Fort Worth Center
11:23PM 33.1136 -92.3022 196° South 471 542 40,000  Level Fort Worth Center
11:28PM 32.3879 -92.5427 196° South 468 539 40,000  Level FlightAware ADS-B
11:31PM 32.0873 -92.7635 212° Southwest 458 527 40,000 -240 Level FlightAware ADS-B
11:32PM 31.9873 -92.8501 216° Southwest 458 527 39,300 -1,020 Descending FlightAware ADS-B
11:33PM 31.9168 -92.9110 216° Southwest 460 529 38,300 -1,080 Descending FlightAware ADS-B
11:34PM 31.8136 -93.0000 216° Southwest 456 525 37,500 -900 Descending FlightAware ADS-B
11:35PM 31.6757 -93.1187 216° Southwest 447 514 36,200 -1,260 Descending FlightAware ADS-B
11:39PM 31.2861 -93.4511 216° Southwest 399 459 30,600 -1,380 Descending FlightAware ADS-B
11:40PM 31.2340 -93.4954 216° Southwest 394 453 29,800 -1,440 Descending FlightAware ADS-B
11:41PM 31.1900 -93.5327 216° Southwest 386 444 29,100 -1,380 Descending FlightAware ADS-B
11:41PM 31.1330 -93.5809 216° Southwest 384 442 28,200 -1,440 Descending FlightAware ADS-B
11:42PM 31.0545 -93.6474 216° Southwest 382 440 26,900 -1,440 Descending FlightAware ADS-B
11:43PM 31.0230 -93.6740 216° Southwest 373 429 26,400 -1,440 Descending FlightAware ADS-B
11:43PM 31.0133 -93.6830 218° Southwest 371 427 26,200 -1,320 Descending FlightAware ADS-B
11:43PM 31.0043 -93.6928 223° Southwest 368 423 26,100 -1,440 Descending FlightAware ADS-B
11:43PM 30.9931 -93.7077 229° Southwest 367 422 25,800 -1,500 Descending FlightAware ADS-B
11:43PM 30.9631 -93.7553 234° Southwest 362 417 25,100 -1,440 Descending FlightAware ADS-B
11:44PM 30.9358 -93.8002 235° Southwest 358 412 24,400 -1,260 Descending FlightAware ADS-B
11:44PM 30.9094 -93.8489 238° Southwest 356 410 23,900 -900 Descending FlightAware ADS-B
11:45PM 30.8830 -93.8977 238° Southwest 355 409 23,500 -720 Descending FlightAware ADS-B
11:46PM 30.8491 -93.9595 237° Southwest 355 409 23,100 -660 Descending FlightAware ADS-B
11:46PM 30.8221 -94.0082 237° Southwest 353 406 22,800 -600 Descending FlightAware ADS-B
11:47PM 30.7945 -94.0576 237° Southwest 351 404 22,500 -600 Descending FlightAware ADS-B
11:47PM 30.7678 -94.1057 237° Southwest 350 403 22,200 -600 Descending FlightAware ADS-B
11:48PM 30.7412 -94.1533 237° Southwest 350 403 21,900 -720 Descending FlightAware ADS-B
11:48PM 30.6993 -94.2275 236° Southwest 348 400 21,300 -780 Descending FlightAware ADS-B
11:50PM 30.6138 -94.3414 228° Southwest 346 398 20,300 -2,040 Descending FlightAware ADS-B
11:51PM 30.5435 -94.4323 228° Southwest 404 465 16,500 -3,840 Descending FlightAware ADS-B
11:51PM 30.5050 -94.4814 228° Southwest 418 481 14,600 -2,220 Descending FlightAware ADS-B
11:54PM 30.3247 -94.7134 228° Southwest 337 388 10,000 -1,560 Descending FlightAware ADS-B
11:54PM 30.2910 -94.7564 228° Southwest 307 353 9,900 -120 Descending FlightAware ADS-B
11:55PM 30.2767 -94.7748 228° Southwest 293 337 9,900 -1,320 Level FlightAware ADS-B
11:56PM 30.2086 -94.8621 228° Southwest 281 323 7,900 -1,800 Descending FlightAware ADS-B
11:56PM 30.1952 -94.8791 228° Southwest 283 326 7,200 -1,800 Descending FlightAware ADS-B
11:58PM 30.1147 -94.9814 228° Southwest 262 302 4,700 -1,500 Descending FlightAware ADS-B
11:58PM 30.1037 -94.9953 228° Southwest 256 295 4,600 -840 Descending FlightAware ADS-B
11:58PM 30.0797 -95.0259 228° Southwest 253 291 4,100 -1,080 Descending FlightAware ADS-B
11:59PM 30.0680 -95.0415 231° Southwest 254 292 3,800 -1,320 Descending FlightAware ADS-B
11:59PM 30.0653 -95.0458 234° Southwest 256 295 3,700 -2,160 Descending FlightAware ADS-B
11:59PM 30.0587 -95.0579 240° Southwest 264 304 3,300 -1,860 Descending FlightAware ADS-B
11:59PM 30.0501 -95.0785 245° Southwest 270 311 2,900 -1,380 Descending FlightAware ADS-B
11:59PM 30.0418 -95.0982 244° Southwest 269 310 2,600 -1,140 Descending FlightAware ADS-B
12:00AM 30.0328 -95.1198 244° Southwest 267 307 2,300 -840 Descending FlightAware ADS-B
12:00AM 30.0157 -95.1608 244° Southwest 263 303 1,900 -420 Descending FlightAware ADS-B
12:01AM 30.0012 -95.1951 244° Southwest 214 246 1,900  Level FlightAware ADS-B
12:01AM 29.9964 -95.2067 244° Southwest 198 228 1,900  Level FlightAware ADS-B
12:01AM 29.9949 -95.2111 249° West 192 221 1,900  Level FlightAware ADS-B
12:01AM 29.9937 -95.2176 258° West 187 215 1,900 -840 Level FlightAware ADS-B
12:01AM 29.9933 -95.2262 267° West 181 208 1,700 -1,080 Descending FlightAware ADS-B
12:01AM 29.9934 -95.2343 271° West 169 194 1,600 -720 Descending FlightAware ADS-B
12:02AM 29.9934 -95.2480 270° West 157 181 1,400 -1,020 Descending FlightAware ADS-B
12:02AM 29.9934 -95.2604 270° West 144 166 1,100 -840 Descending FlightAware ADS-B
12:02AM 29.9934 -95.2714 270° West 135 155 1,000 -720 Descending FlightAware ADS-B
12:02AM 29.9934 -95.2854 270° West 136 157 700 -780 Descending FlightAware ADS-B
12:03AM 29.9935 -95.2998 270° West 136 157 500 -720 Descending FlightAware ADS-B
12:03AM 29.9935 -95.3107 270° West 137 158 300 -780 Descending FlightAware ADS-B
12:03AM 29.9934 -95.3231 269° West 137 158 100 -720 Descending FlightAware ADS-B